KFHR/FHR METAR and TAF weather

Enter ICAO airport designator
Station Type Date Time Source
KFHR METAR 2019/08/23 17:53 UTC NOAA

KFHR 231753Z AUTO 00000KT 5SM -RA BR BKN080 OVC100 13/12 A3001 RMK AO2 SLP164 P0000 60001 T01330122 10133 20100 50000


Station Type Date Time Source
KFHR Decoded METAR 2019/08/23 17:53 UTC NOAA

Station name not available
Aug 23, 2019 - 01:53 PM EDT / 2019.08.23 1753 UTC
Wind: Calm:0
Visibility: 5 mile(s):0
Sky conditions: overcast
Weather: light rain; mist
Precipitation last hour: A trace
Temperature: 55.9 F (13.3 C)
Dew Point: 54.0 F (12.2 C)
Relative Humidity: 93%
Pressure (altimeter): 30.01 in. Hg (1016 hPa)
Pressure tendency: 0.00 inches (0.0 hPa) higher than three hours ago
ob: KFHR 231753Z AUTO 00000KT 5SM -RA BR BKN080 OVC100 13/12 A3001 RMK AO2 SLP164 P0000 60001 T01330122 10133 20100 50000
cycle: 18

Station Type Date Time Source
KFHR TAF UTC NOAA

Error!

Example: see airport list